Aeroporto :
LOGIN :

Iscrizione | Disclaimer

   EN    FR    IT 

 










Sommario :    VFR   VFR Marginale   IFR   IFR Intensivo   IFR Molto Intensivo
Visibilità : 
Base nubi : 
>= 8 km
>= 3000ft
5 / 8 km
1000 / 3000 ft
1500m / 5 km
500 / 1000 ft
800 / 1500m
200 / 500 ft
< 800m
< 200 ft
Simboli :   Temporali  Nebbia  Neve Forte  Precipitazioni Forti  Vento > 20 kt
SIGMETs :   Varie  Temporali  Ghiacco  Turbolenza  Onda orograficha  Ceneri Vulcaniche






- Altitudine del aeroporto : 276 ft


LYVR - Vršac International

ULTIMO METAR :
  • 260100Z AUTO 30003KT 260V330 9999 -SHRA NSC 11/11 Q1022 RESHRA

METARs OBSOLETI :
  • 260030Z AUTO 31003KT 9999 SHRA NSC 11/11 Q1022
  • 260000Z AUTO 26003KT 9999 -RA NSC 11/11 Q1022
  • 252330Z AUTO 12004KT 060V130 CAVOK 11/11 Q1022
  • 252300Z AUTO 30004KT 270V340 CAVOK 11/11 Q1022
  • 252230Z AUTO 00000KT 9999 -RA NSC 12/11 Q1022 RERA

TAF TAF LYVR
Valido dal 26 a 00 ore il 27 a 00 ore UTC


252300Z 2600/2624 30008KT 9999 BKN030 TX17/2613Z TN09/2603Z
TEMPO 2608/2618 5000 SHRA SCT030TCU BKN040
TEMPO 2611/2617 32015G25KT 3000 TSRA SCT017 SCT027CB SCT030



MetMap, La meteo Aeronautica in un colpo d'occhio ! - Copyright ORBIFLY Dicembre 2007 - Disclaimer

ORBIFLY MET'MAP TEAM :

Programmazione e sviluppo : Alexandra Zaïnal
Concezione : Baudouin d'Aumeries
Aiuto per la programmazione : Marc-Olivier Méhu
Supporto tecnico e logistico : Manuel Goepfert
Aiuto per la traduzione : Arnaldo La Scala

Contatto : metmap@orbifly.com




FONTI E CREDITI :

   NOAA